createdAt,value
2018-11-05T00:00:54.958Z,78.86
2018-11-05T00:01:54.964Z,79.05
2018-11-05T00:02:54.982Z,79.14
2018-11-05T00:03:55.190Z,78.76
2018-11-05T00:04:55.027Z,78.95
2018-11-05T00:05:55.063Z,79.14
2018-11-05T00:06:55.046Z,79.14
2018-11-05T00:07:55.126Z,79.24
2018-11-05T00:08:55.096Z,78.38
2018-11-05T00:09:55.152Z,79.05
2018-11-05T00:11:55.179Z,79.33
2018-11-05T00:12:55.197Z,79.43
2018-11-05T00:13:55.192Z,79.24
2018-11-05T00:14:55.202Z,79.05
2018-11-05T00:15:55.277Z,79.05
2018-11-05T00:16:55.272Z,78.86
2018-11-05T00:17:55.305Z,79.24
2018-11-05T00:18:55.298Z,79.72
2018-11-05T00:19:55.305Z,79.24
2018-11-05T00:20:55.381Z,79.33
2018-11-05T00:21:55.331Z,79.24
2018-11-05T00:22:55.349Z,79.72
2018-11-05T00:24:55.389Z,80.16
2018-11-05T00:25:55.410Z,80.29
2018-11-05T00:26:55.424Z,79.91
2018-11-05T00:27:55.440Z,79.52
2018-11-05T00:28:55.466Z,79.05
2018-11-05T00:29:55.492Z,79.33
2018-11-05T00:30:55.490Z,79.72
2018-11-05T00:31:55.640Z,79.91
2018-11-05T00:32:55.534Z,79.81
2018-11-05T00:33:55.551Z,79.72
2018-11-05T00:34:55.570Z,79.72
2018-11-05T00:35:55.593Z,79.43
2018-11-05T00:36:55.618Z,79.43
2018-11-05T00:37:55.629Z,79.14
2018-11-05T00:38:55.641Z,79.14
2018-11-05T00:39:55.653Z,79.81
2018-11-05T00:40:55.686Z,79.05
2018-11-05T00:41:55.695Z,79.72
2018-11-05T00:42:55.715Z,79.33
2018-11-05T00:43:55.761Z,79.52
2018-11-05T00:44:55.801Z,79.72
2018-11-05T00:45:55.764Z,79.43
2018-11-05T00:46:55.793Z,79.24
2018-11-05T00:47:55.805Z,78.95
2018-11-05T00:48:55.822Z,79.33
2018-11-05T00:49:55.848Z,80.44
2018-11-05T00:50:55.885Z,80.29
2018-11-05T00:51:55.886Z,80.00
2018-11-05T00:52:55.907Z,79.91
2018-11-05T00:53:55.937Z,80.16
2018-11-05T00:54:55.941Z,80.19
2018-11-05T00:55:56.356Z,79.81
2018-11-05T00:56:55.980Z,79.62
2018-11-05T00:57:55.991Z,79.91
2018-11-05T00:58:56.005Z,80.06
2018-11-05T00:59:56.116Z,80.10
2018-11-05T01:00:57.358Z,79.62
2018-11-05T01:01:56.063Z,80.35
2018-11-05T01:02:56.094Z,80.35
2018-11-05T01:03:56.098Z,80.73
2018-11-05T01:04:56.117Z,80.35
2018-11-05T01:05:56.159Z,80.19
2018-11-05T01:06:56.156Z,79.72
2018-11-05T01:07:56.173Z,79.91
2018-11-05T01:08:56.202Z,79.72
2018-11-05T01:09:56.217Z,79.91
2018-11-05T01:10:56.281Z,79.72
2018-11-05T01:12:56.265Z,80.25
2018-11-05T01:13:56.291Z,80.35
2018-11-05T01:14:56.309Z,80.29
2018-11-05T01:15:56.324Z,80.19
2018-11-05T01:16:56.435Z,80.00
2018-11-05T01:17:56.379Z,79.91
2018-11-05T01:18:56.373Z,80.38
2018-11-05T01:19:56.391Z,79.77
2018-11-05T01:20:56.430Z,80.44
2018-11-05T01:21:56.430Z,80.35
2018-11-05T01:24:56.504Z,80.44
2018-11-05T01:25:56.501Z,80.92
2018-11-05T01:26:56.528Z,80.92
2018-11-05T01:27:56.541Z,80.25
2018-11-05T01:28:56.564Z,80.00
2018-11-05T01:29:56.591Z,80.16
2018-11-05T01:30:56.601Z,80.73
2018-11-05T01:31:56.631Z,80.16
2018-11-05T01:32:56.632Z,80.00
2018-11-05T01:33:56.657Z,80.44
2018-11-05T01:34:56.670Z,80.82
2018-11-05T01:35:56.687Z,80.73
2018-11-05T01:36:56.712Z,80.44
2018-11-05T01:37:56.726Z,80.82
2018-11-05T01:38:56.798Z,81.49
2018-11-05T01:40:56.826Z,82.26
2018-11-05T01:41:56.793Z,81.74
2018-11-05T01:42:56.816Z,81.78
2018-11-05T01:43:56.829Z,82.12
2018-11-05T01:44:56.847Z,82.07
2018-11-05T01:45:56.866Z,81.97
2018-11-05T01:46:56.887Z,82.03
2018-11-05T01:47:56.943Z,82.22
2018-11-05T01:48:56.930Z,82.26
2018-11-05T01:50:57.000Z,81.97
2018-11-05T01:51:57.136Z,81.78
2018-11-05T01:52:56.999Z,81.02
2018-11-05T01:53:57.033Z,81.21
2018-11-05T01:54:57.024Z,80.92
2018-11-05T01:55:57.059Z,81.11
2018-11-05T01:56:57.069Z,81.68
2018-11-05T01:57:57.086Z,80.92
2018-11-05T01:58:57.117Z,81.02
2018-11-05T01:59:57.137Z,81.59
2018-11-05T02:00:57.155Z,81.97
2018-11-05T02:01:57.159Z,81.97
2018-11-05T02:02:57.175Z,81.59
2018-11-05T02:03:57.201Z,80.92
2018-11-05T02:04:57.237Z,81.21
2018-11-05T02:05:57.241Z,80.63
2018-11-05T02:06:57.247Z,80.82
2018-11-05T02:07:57.278Z,80.82
2018-11-05T02:08:57.352Z,80.92
2018-11-05T02:09:57.313Z,81.78
2018-11-05T02:10:57.329Z,81.59
2018-11-05T02:11:57.372Z,82.17
2018-11-05T02:12:57.360Z,82.07
2018-11-05T02:13:57.383Z,81.30
2018-11-05T02:14:57.418Z,81.93
2018-11-05T02:15:57.438Z,81.74
2018-11-05T02:16:57.435Z,82.22
2018-11-05T02:17:57.460Z,82.51
2018-11-05T02:18:57.484Z,82.17
2018-11-05T02:19:57.609Z,81.30
2018-11-05T02:20:57.518Z,81.49
2018-11-05T02:21:57.525Z,81.30
2018-11-05T02:22:57.544Z,81.68
2018-11-05T02:23:57.568Z,81.49
2018-11-05T02:24:57.574Z,81.49
2018-11-05T02:26:57.636Z,82.03
2018-11-05T02:27:57.629Z,81.68
2018-11-05T02:28:57.660Z,82.03
2018-11-05T02:29:57.672Z,82.03
2018-11-05T02:30:57.750Z,81.45
2018-11-05T02:31:57.704Z,81.55
2018-11-05T02:32:57.846Z,81.36
2018-11-05T02:34:57.757Z,82.03
2018-11-05T02:35:57.789Z,81.74
2018-11-05T02:36:57.814Z,81.65
2018-11-05T02:38:57.843Z,83.17
2018-11-05T02:39:57.850Z,83.17
2018-11-05T02:40:57.865Z,83.56
2018-11-05T02:41:57.883Z,83.75
2018-11-05T02:42:57.906Z,83.46
2018-11-05T02:43:57.920Z,83.46
2018-11-05T02:44:57.947Z,83.08
2018-11-05T02:45:57.999Z,83.80
2018-11-05T02:46:57.981Z,83.90
2018-11-05T02:47:57.996Z,83.46
2018-11-05T02:49:58.041Z,82.51
2018-11-05T02:50:58.064Z,82.31
2018-11-05T02:51:58.070Z,82.70
2018-11-05T02:52:58.101Z,83.27
2018-11-05T02:53:58.112Z,83.42
2018-11-05T02:54:58.128Z,84.47
2018-11-05T02:55:58.139Z,83.61
2018-11-05T02:56:58.165Z,83.90
2018-11-05T02:57:58.184Z,83.42
2018-11-05T02:58:58.196Z,82.75
2018-11-05T02:59:58.219Z,82.56
2018-11-05T03:00:58.333Z,82.94
2018-11-05T03:01:58.259Z,83.51
2018-11-05T03:02:58.362Z,84.19
2018-11-05T03:03:58.295Z,83.70
2018-11-05T03:04:58.304Z,82.56
2018-11-05T03:05:58.331Z,82.65
2018-11-05T03:06:58.338Z,82.65
2018-11-05T03:07:58.368Z,83.70
2018-11-05T03:08:58.388Z,83.61
2018-11-05T03:09:58.396Z,82.94
2018-11-05T03:10:58.425Z,82.94
2018-11-05T03:11:58.542Z,83.51
2018-11-05T03:12:58.449Z,83.70
2018-11-05T03:13:58.470Z,83.23
2018-11-05T03:14:59.393Z,83.04
2018-11-05T03:15:58.508Z,82.84
2018-11-05T03:16:58.525Z,83.42
2018-11-05T03:18:58.603Z,83.42
2018-11-05T03:19:58.638Z,83.90
2018-11-05T03:20:58.631Z,83.23
2018-11-05T03:21:58.652Z,83.04
2018-11-05T03:22:58.667Z,83.04
2018-11-05T03:23:58.691Z,81.93
2018-11-05T03:25:19.738Z,81.45
2018-11-05T03:25:58.717Z,81.07
2018-11-05T03:26:58.726Z,81.07
2018-11-05T03:27:58.761Z,82.08
2018-11-05T03:28:59.778Z,82.75
2018-11-05T03:29:58.792Z,83.04
2018-11-05T03:31:19.848Z,83.04
2018-11-05T03:31:58.838Z,82.08
2018-11-05T03:32:58.841Z,81.55
2018-11-05T03:33:58.866Z,81.70
2018-11-05T03:34:58.883Z,81.84
2018-11-05T03:35:58.972Z,80.79
2018-11-05T03:37:20.108Z,81.07
2018-11-05T03:37:58.935Z,80.40
2018-11-05T03:38:58.937Z,80.69
2018-11-05T03:43:26.959Z,79.73
2018-11-05T03:44:48.016Z,80.02
2018-11-05T03:45:26.985Z,80.36
2018-11-05T03:46:27.012Z,80.93
2018-11-05T03:47:27.026Z,80.79
2018-11-05T03:48:27.062Z,80.21
2018-11-05T03:49:27.079Z,79.93
2018-11-05T03:50:48.103Z,81.51
2018-11-05T03:51:27.092Z,82.46
2018-11-05T03:52:27.124Z,82.71
2018-11-05T03:53:27.157Z,82.28
2018-11-05T03:54:27.165Z,82.28
2018-11-05T03:55:27.200Z,82.52
2018-11-05T03:56:48.411Z,82.81
2018-11-05T03:57:27.213Z,83.67
2018-11-05T03:58:27.268Z,83.57
2018-11-05T03:59:27.257Z,83.00
2018-11-05T04:00:27.274Z,82.71
2018-11-05T04:01:27.298Z,81.95
2018-11-05T04:02:48.365Z,83.57
2018-11-05T04:03:27.521Z,82.52
2018-11-05T04:04:27.370Z,82.18
2018-11-05T04:05:27.362Z,82.08
2018-11-05T04:06:27.408Z,81.79
2018-11-05T04:07:27.381Z,81.60
2018-11-05T04:08:48.437Z,81.32
2018-11-05T04:09:27.430Z,81.79
2018-11-05T04:10:27.446Z,81.85
2018-11-05T04:11:27.487Z,82.52
2018-11-05T04:12:27.480Z,82.46
2018-11-05T04:13:27.487Z,81.41
2018-11-05T04:14:48.562Z,80.74
2018-11-05T04:15:27.648Z,81.56
2018-11-05T04:16:27.572Z,81.70
2018-11-05T04:17:27.566Z,81.13
2018-11-05T04:18:27.614Z,81.41
2018-11-05T04:19:27.612Z,80.84
2018-11-05T04:20:48.648Z,81.03
2018-11-05T04:21:27.667Z,81.37
2018-11-05T04:22:27.663Z,82.32
2018-11-05T04:23:27.670Z,81.99
2018-11-05T04:24:27.682Z,80.74
2018-11-05T04:25:27.778Z,80.90
2018-11-05T04:26:48.916Z,81.22
2018-11-05T04:27:27.752Z,81.56
2018-11-05T04:28:27.761Z,81.85
2018-11-05T04:29:27.780Z,81.85
2018-11-05T04:30:27.800Z,81.85
2018-11-05T04:31:27.937Z,82.42
2018-11-05T04:32:48.877Z,82.23
2018-11-05T04:33:27.853Z,82.37
2018-11-05T04:34:27.886Z,81.22
2018-11-05T04:35:27.929Z,82.32
2018-11-05T04:36:27.907Z,81.95
2018-11-05T04:37:27.933Z,81.99
2018-11-05T04:38:48.958Z,81.79
2018-11-05T04:39:27.973Z,81.85
2018-11-05T04:40:27.998Z,82.81
2018-11-05T04:41:28.005Z,83.67
2018-11-05T04:42:28.598Z,83.00
2018-11-05T04:43:28.061Z,83.57
2018-11-05T04:44:49.074Z,83.57
2018-11-05T04:45:28.117Z,85.10
2018-11-05T04:46:28.109Z,85.00
2018-11-05T04:47:28.114Z,84.52
2018-11-05T04:48:28.122Z,85.00
2018-11-05T04:49:28.163Z,84.62
2018-11-05T04:50:49.273Z,84.14
2018-11-05T04:51:28.200Z,84.14
2018-11-05T04:52:28.200Z,82.65
2018-11-05T04:53:28.199Z,82.28
2018-11-05T04:54:28.263Z,81.41
2018-11-05T04:55:28.407Z,81.47
2018-11-05T04:56:49.338Z,82.28
2018-11-05T04:57:28.322Z,80.84
2018-11-05T04:58:28.325Z,80.84
2018-11-05T04:59:28.420Z,81.27
2018-11-05T05:00:28.338Z,81.56
2018-11-05T05:01:28.348Z,81.37
2018-11-05T05:02:49.385Z,81.66
2018-11-05T05:03:28.435Z,82.04
2018-11-05T05:04:28.429Z,82.04
2018-11-05T05:07:10.653Z,83.34
2018-11-05T05:08:10.525Z,83.43
2018-11-05T05:09:31.554Z,83.81
2018-11-05T05:10:10.614Z,83.81
2018-11-05T05:11:10.560Z,83.34
2018-11-05T05:12:10.587Z,84.10
2018-11-05T05:13:10.630Z,83.57
2018-11-05T05:14:10.604Z,82.04
2018-11-05T05:15:31.664Z,81.56
2018-11-05T05:16:10.646Z,81.47
2018-11-05T05:17:10.660Z,81.60
2018-11-05T05:18:10.672Z,81.56
2018-11-05T05:19:10.742Z,81.37
2018-11-05T05:20:10.859Z,82.14
2018-11-05T05:21:31.896Z,82.04
2018-11-05T05:22:10.737Z,81.85
2018-11-05T05:23:10.775Z,81.37
2018-11-05T05:24:10.934Z,81.66
2018-11-05T05:25:10.845Z,82.57
2018-11-05T05:26:11.830Z,82.76
2018-11-05T05:27:31.868Z,82.04
2018-11-05T05:28:10.877Z,81.95
2018-11-05T05:30:59.030Z,83.62
2018-11-05T05:31:59.052Z,82.23
2018-11-05T05:32:59.139Z,82.86
2018-11-05T05:36:02.052Z,82.76
2018-11-05T05:37:02.091Z,82.86
2018-11-05T05:41:02.241Z,82.95
2018-11-05T05:41:02.791Z,83.05
2018-11-05T05:42:02.818Z,83.34
2018-11-05T05:43:23.766Z,83.53
2018-11-05T05:44:02.914Z,83.53
2018-11-05T05:45:02.944Z,83.53
2018-11-05T05:46:02.885Z,83.34
2018-11-05T05:47:02.872Z,83.05
2018-11-05T05:48:02.925Z,82.48
2018-11-05T05:49:23.877Z,82.09
2018-11-05T05:50:03.029Z,82.00
2018-11-05T05:51:03.029Z,81.90
2018-11-05T05:52:03.006Z,82.00
2018-11-05T05:53:02.979Z,81.62
2018-11-05T05:54:52.228Z,82.72
2018-11-05T05:55:23.998Z,83.53
2018-11-05T05:56:02.988Z,83.05
2018-11-05T05:57:03.018Z,82.95
2018-11-05T05:58:03.063Z,82.76
2018-11-05T05:59:03.047Z,83.96
2018-11-05T06:00:03.173Z,83.53
2018-11-05T06:01:24.084Z,82.95
2018-11-05T06:02:03.094Z,82.57
2018-11-05T06:03:03.146Z,82.00
2018-11-05T06:04:03.360Z,82.48
2018-11-05T06:05:03.139Z,82.29
2018-11-05T06:06:03.274Z,82.76
2018-11-05T06:07:24.222Z,81.37
2018-11-05T06:09:45.174Z,80.04
2018-11-05T06:10:45.198Z,80.66
2018-11-05T06:11:45.213Z,80.70
2018-11-05T06:12:45.207Z,80.90
2018-11-05T06:14:06.242Z,79.94
2018-11-05T06:14:45.300Z,79.65
2018-11-05T06:15:45.353Z,80.66
2018-11-05T06:16:45.270Z,81.52
2018-11-05T06:17:45.340Z,81.14
2018-11-05T06:20:48.793Z,82.29
2018-11-05T06:21:27.720Z,81.76
2018-11-05T06:22:27.762Z,80.80
2018-11-05T06:23:27.780Z,80.04
2018-11-05T06:24:27.757Z,81.62
2018-11-05T06:26:51.843Z,82.34
2018-11-05T06:28:46.838Z,82.00
2018-11-05T06:28:47.351Z,80.90
2018-11-05T06:29:47.385Z,80.32
2018-11-05T06:30:47.388Z,80.70
2018-11-05T06:31:47.406Z,80.51
2018-11-05T06:32:47.418Z,81.18
2018-11-05T06:37:09.267Z,83.77
2018-11-05T06:38:09.296Z,83.62
2018-11-05T06:39:09.339Z,83.34
2018-11-05T06:40:09.315Z,81.85
2018-11-05T06:41:09.362Z,81.56
2018-11-05T06:42:30.368Z,81.47
2018-11-05T06:43:09.358Z,82.29
2018-11-05T06:44:09.401Z,82.86
2018-11-05T06:45:09.434Z,82.95
2018-11-05T06:46:09.396Z,83.62
2018-11-05T06:47:09.445Z,83.72
2018-11-05T06:48:30.471Z,83.62
2018-11-05T06:49:09.466Z,82.61
2018-11-05T06:50:09.484Z,81.18
2018-11-05T06:51:09.491Z,81.56
2018-11-05T06:53:51.777Z,81.76
2018-11-05T06:55:12.807Z,81.71
2018-11-05T06:55:51.794Z,82.09
2018-11-05T06:56:51.807Z,82.00
2018-11-05T06:57:52.947Z,82.57
2018-11-05T06:58:51.911Z,83.24
2018-11-05T06:59:51.863Z,83.53
2018-11-05T07:01:12.913Z,83.72
2018-11-05T07:01:51.910Z,84.29
2018-11-05T07:02:52.814Z,83.91
2018-11-05T07:05:34.252Z,83.91
2018-11-05T07:06:34.376Z,83.91
2018-11-05T07:07:55.326Z,83.72
2018-11-05T07:08:34.327Z,82.81
2018-11-05T07:09:34.416Z,83.47
2018-11-05T07:10:34.353Z,82.52
2018-11-05T07:11:34.435Z,82.04
2018-11-05T07:12:34.398Z,82.23
2018-11-05T07:13:55.562Z,82.32
2018-11-05T07:14:34.413Z,84.29
2018-11-05T07:15:34.442Z,86.01
2018-11-05T07:16:34.459Z,86.35
2018-11-05T07:17:35.345Z,86.39
2018-11-05T07:18:34.600Z,85.53
2018-11-05T07:19:55.505Z,84.96
2018-11-05T07:20:34.531Z,84.96
2018-11-05T07:21:34.557Z,84.96
2018-11-05T07:22:34.568Z,85.15
2018-11-05T07:23:34.654Z,85.72
2018-11-05T07:24:34.622Z,86.10
2018-11-05T07:25:55.609Z,85.91
2018-11-05T07:26:34.623Z,86.25
2018-11-05T07:27:34.669Z,85.72
2018-11-05T07:28:34.668Z,86.30
2018-11-05T07:29:34.689Z,86.30
2018-11-05T07:30:34.756Z,86.01
2018-11-05T07:31:55.727Z,85.63
2018-11-05T07:32:34.721Z,85.58
2018-11-05T07:33:34.784Z,85.00
2018-11-05T07:36:16.781Z,86.58
2018-11-05T07:37:16.788Z,87.35
2018-11-05T07:38:37.814Z,87.63
2018-11-05T07:39:16.821Z,87.35
2018-11-05T07:40:16.859Z,87.82
2018-11-05T07:41:16.850Z,87.63
2018-11-05T07:42:16.917Z,87.44
2018-11-05T07:43:16.878Z,88.20
2018-11-05T07:44:37.935Z,87.73
2018-11-05T07:45:16.926Z,89.02
2018-11-05T07:46:16.939Z,88.78
2018-11-05T07:47:16.985Z,87.63
2018-11-05T07:48:17.216Z,87.63
2018-11-05T07:49:17.003Z,88.78
2018-11-05T07:50:38.032Z,89.21
2018-11-05T07:51:17.035Z,88.40
2018-11-05T07:52:17.046Z,88.49
2018-11-05T07:53:17.080Z,88.87
2018-11-05T07:54:17.078Z,88.87
2018-11-05T07:55:17.141Z,88.97
2018-11-05T07:56:38.156Z,89.06
2018-11-05T07:57:17.134Z,88.78
2018-11-05T07:58:17.160Z,89.35
2018-11-05T08:01:13.307Z,88.87
2018-11-05T08:02:13.340Z,88.49
2018-11-05T08:03:34.349Z,87.48
2018-11-05T08:04:13.380Z,86.91
2018-11-05T08:05:14.321Z,86.49
2018-11-05T08:06:13.399Z,86.91
2018-11-05T08:07:13.423Z,86.96
2018-11-05T08:08:13.449Z,87.10
2018-11-05T08:09:34.469Z,86.43
2018-11-05T08:10:13.459Z,85.86
2018-11-05T08:11:13.480Z,86.53
2018-11-05T08:12:13.525Z,86.91
2018-11-05T08:13:13.525Z,86.53
2018-11-05T08:14:13.548Z,87.54
2018-11-05T08:15:34.686Z,87.35
2018-11-05T08:16:13.758Z,86.96
2018-11-05T08:17:13.590Z,87.82
2018-11-05T08:18:13.599Z,87.10
2018-11-05T08:19:13.611Z,86.15
2018-11-05T08:20:13.620Z,86.53
2018-11-05T08:21:34.670Z,86.24
2018-11-05T08:22:13.679Z,87.96
2018-11-05T08:23:13.687Z,87.82
2018-11-05T08:24:13.754Z,88.11
2018-11-05T08:25:13.747Z,87.58
2018-11-05T08:26:13.740Z,87.63
2018-11-05T08:27:34.850Z,88.59
2018-11-05T08:28:13.803Z,88.78
2018-11-05T08:29:13.799Z,88.59
2018-11-05T08:30:13.818Z,87.77
2018-11-05T08:31:13.811Z,87.01
2018-11-05T08:32:13.872Z,86.53
2018-11-05T08:33:35.828Z,86.68
2018-11-05T08:34:13.923Z,87.54
2018-11-05T08:35:13.896Z,88.59
2018-11-05T08:36:13.923Z,88.87
2018-11-05T08:37:13.936Z,88.97
2018-11-05T08:38:13.943Z,88.78
2018-11-05T08:39:35.176Z,89.25
2018-11-05T08:41:56.362Z,88.06
2018-11-05T08:42:56.331Z,88.06
2018-11-05T08:43:56.387Z,87.48
2018-11-05T08:44:56.374Z,87.92
2018-11-05T08:46:17.390Z,88.97
2018-11-05T08:46:56.536Z,88.87
2018-11-05T08:47:56.509Z,88.25
2018-11-05T08:48:56.457Z,87.39
2018-11-05T08:49:56.489Z,86.53
2018-11-05T08:50:56.542Z,86.63
2018-11-05T08:52:17.502Z,86.53
2018-11-05T08:52:56.506Z,86.91
2018-11-05T08:53:56.591Z,87.01
2018-11-05T08:54:56.580Z,87.01
2018-11-05T08:55:56.580Z,87.10
2018-11-05T08:56:56.592Z,86.63
2018-11-05T08:58:17.605Z,86.53
2018-11-05T08:58:56.710Z,86.96
2018-11-05T08:59:56.626Z,87.48
2018-11-05T09:00:56.679Z,87.20
2018-11-05T09:01:56.656Z,86.72
2018-11-05T09:02:56.701Z,87.01
2018-11-05T09:04:17.727Z,87.48
2018-11-05T09:04:56.746Z,87.20
2018-11-05T09:05:56.733Z,86.91
2018-11-05T09:06:56.809Z,87.10
2018-11-05T09:07:56.786Z,86.53
2018-11-05T09:08:56.772Z,86.24
2018-11-05T09:10:18.022Z,87.01
2018-11-05T09:10:57.211Z,87.58
2018-11-05T09:11:56.930Z,87.54
2018-11-05T09:12:56.852Z,87.63
2018-11-05T09:13:56.856Z,87.39
2018-11-05T09:14:56.902Z,87.29
2018-11-05T09:16:18.072Z,87.20
2018-11-05T09:16:56.921Z,86.34
2018-11-05T09:17:56.958Z,86.53
2018-11-05T09:18:56.952Z,86.34
2018-11-05T09:19:56.978Z,86.53
2018-11-05T09:20:57.048Z,86.05
2018-11-05T09:22:18.181Z,86.63
2018-11-05T09:22:57.029Z,86.53
2018-11-05T09:23:57.049Z,86.15
2018-11-05T09:24:57.076Z,87.29
2018-11-05T09:25:57.080Z,87.35
2018-11-05T09:26:57.179Z,87.54
2018-11-05T09:28:18.151Z,88.20
2018-11-05T09:28:57.128Z,88.01
2018-11-05T09:29:57.150Z,88.49
2018-11-05T09:30:57.177Z,87.96
2018-11-05T09:31:57.189Z,86.91
2018-11-05T09:32:57.228Z,86.43
2018-11-05T09:34:18.232Z,86.05
2018-11-05T09:34:57.228Z,85.67
2018-11-05T09:35:57.244Z,85.48
2018-11-05T09:36:57.304Z,85.86
2018-11-05T09:37:57.394Z,85.77
2018-11-05T09:38:57.330Z,86.24
2018-11-05T09:40:18.330Z,86.72
2018-11-05T09:40:57.349Z,87.48
2018-11-05T09:41:57.348Z,87.73
2018-11-05T09:42:57.421Z,87.73
2018-11-05T09:43:57.484Z,88.49
2018-11-05T09:44:57.436Z,88.30
2018-11-05T09:46:18.442Z,87.63
2018-11-05T09:46:57.500Z,87.39
2018-11-05T09:47:57.470Z,86.34
2018-11-05T09:48:57.496Z,86.24
2018-11-05T09:49:57.568Z,85.77
2018-11-05T09:50:57.659Z,86.24
2018-11-05T09:52:18.723Z,85.58
2018-11-05T09:52:57.564Z,86.43
2018-11-05T09:53:57.614Z,87.10
2018-11-05T09:54:57.585Z,87.35
2018-11-05T09:55:57.617Z,88.30
2018-11-05T09:56:57.750Z,88.11
2018-11-05T09:58:18.646Z,87.77
2018-11-05T09:58:57.664Z,87.73
2018-11-05T09:59:57.747Z,87.63
2018-11-05T10:00:57.684Z,87.92
2018-11-05T10:01:57.705Z,88.30
2018-11-05T10:02:57.766Z,87.68
2018-11-05T10:04:18.954Z,87.01
2018-11-05T10:04:58.089Z,86.24
2018-11-05T10:05:57.769Z,86.72
2018-11-05T10:06:58.408Z,86.15
2018-11-05T10:07:57.961Z,85.96
2018-11-05T10:08:57.823Z,87.10
2018-11-05T10:10:18.910Z,87.20
2018-11-05T10:10:57.895Z,86.53
2018-11-05T10:11:57.893Z,85.96
2018-11-05T10:12:57.899Z,86.05
2018-11-05T10:13:57.910Z,86.53
2018-11-05T10:14:57.959Z,87.10
2018-11-05T10:16:19.040Z,87.01
2018-11-05T10:16:57.984Z,88.06
2018-11-05T10:17:57.980Z,87.58
2018-11-05T10:18:58.061Z,88.06
2018-11-05T10:19:59.024Z,87.96
2018-11-05T10:20:58.070Z,87.10
2018-11-05T10:22:19.958Z,86.24
2018-11-05T10:22:59.166Z,86.63
2018-11-05T10:23:58.111Z,86.24
2018-11-05T10:24:58.297Z,86.72
2018-11-05T10:25:58.134Z,86.15
2018-11-05T10:26:58.141Z,87.10
2018-11-05T10:28:19.214Z,87.20
2018-11-05T10:30:31.487Z,86.82
2018-11-05T10:30:31.986Z,87.48
2018-11-05T10:31:32.107Z,88.06
2018-11-05T10:32:32.055Z,87.20
2018-11-05T10:33:32.134Z,87.68
2018-11-05T10:34:53.112Z,87.39
2018-11-05T10:35:32.128Z,87.87
2018-11-05T10:36:32.099Z,87.01
2018-11-05T10:37:32.126Z,87.29
2018-11-05T10:38:32.193Z,87.20
2018-11-05T10:39:32.149Z,87.58
2018-11-05T10:40:53.198Z,88.06
2018-11-05T10:41:32.189Z,87.68
2018-11-05T10:42:32.390Z,87.77
2018-11-05T10:43:32.228Z,87.77
2018-11-05T10:44:32.265Z,87.96
2018-11-05T10:45:32.257Z,86.72
2018-11-05T10:46:53.295Z,86.63
2018-11-05T10:47:32.294Z,86.34
2018-11-05T10:48:32.336Z,86.72
2018-11-05T10:49:32.326Z,86.00
2018-11-05T10:50:32.429Z,86.10
2018-11-05T10:51:32.398Z,86.05
2018-11-05T10:52:53.409Z,85.62
2018-11-05T10:53:32.425Z,86.00
2018-11-05T10:54:32.501Z,86.34
2018-11-05T10:55:32.472Z,86.72
2018-11-05T10:58:14.387Z,87.20
2018-11-05T10:59:35.427Z,88.06
2018-11-05T11:00:14.479Z,87.29
2018-11-05T11:01:14.452Z,86.15
2018-11-05T11:02:14.498Z,86.57
2018-11-05T11:03:14.495Z,85.90
2018-11-05T11:04:14.534Z,85.90
2018-11-05T11:05:35.508Z,86.10
2018-11-05T11:06:14.588Z,85.62
2018-11-05T11:07:14.557Z,86.00
2018-11-05T11:08:14.575Z,86.29
2018-11-05T11:09:14.590Z,86.29
2018-11-05T11:10:14.596Z,86.72
2018-11-05T11:11:35.656Z,86.15
2018-11-05T11:12:14.639Z,86.72
2018-11-05T11:13:14.813Z,86.82
2018-11-05T11:14:14.662Z,86.82
2018-11-05T11:15:14.746Z,87.10
2018-11-05T11:16:14.714Z,86.82
2018-11-05T11:17:59.016Z,87.20
2018-11-05T11:18:14.720Z,86.63
2018-11-05T11:19:14.764Z,87.01
2018-11-05T11:20:14.758Z,86.43
2018-11-05T11:21:14.783Z,86.63
2018-11-05T11:22:14.849Z,86.29
2018-11-05T11:23:35.824Z,86.76
2018-11-05T11:25:44.062Z,86.38
2018-11-05T11:25:44.587Z,86.10
2018-11-05T11:26:45.600Z,85.62
2018-11-05T11:27:44.736Z,85.62
2018-11-05T11:28:44.710Z,86.29
2018-11-05T11:30:05.659Z,86.00
2018-11-05T11:30:44.667Z,85.90
2018-11-05T11:31:44.688Z,86.57
2018-11-05T11:32:45.715Z,86.38
2018-11-05T11:33:44.724Z,86.82
2018-11-05T11:34:44.728Z,87.05
2018-11-05T11:36:05.797Z,86.10
2018-11-05T11:36:44.906Z,86.96
2018-11-05T11:37:44.804Z,86.34
2018-11-05T11:38:44.827Z,86.05
2018-11-05T11:39:44.825Z,86.63
2018-11-05T11:40:45.038Z,86.63
2018-11-05T11:43:17.819Z,86.86
2018-11-05T11:44:17.887Z,86.38
2018-11-05T11:45:17.719Z,86.00
2018-11-05T11:46:17.790Z,86.47
2018-11-05T11:47:17.752Z,86.47
2018-11-05T11:48:17.792Z,86.00
2018-11-05T11:49:17.768Z,86.38
2018-11-05T11:50:17.808Z,86.47
2018-11-05T11:51:17.832Z,86.57
2018-11-05T11:52:17.795Z,86.29
2018-11-05T11:53:18.086Z,86.57
2018-11-05T11:54:17.907Z,86.00
2018-11-05T11:55:17.999Z,86.38
2018-11-05T11:56:17.864Z,86.57
2018-11-05T11:57:17.909Z,87.20
2018-11-05T11:59:18.019Z,86.57
2018-11-05T12:00:17.993Z,86.57
2018-11-05T12:01:18.148Z,86.57
2018-11-05T12:02:18.243Z,87.29
2018-11-05T12:03:18.049Z,87.68
2018-11-05T12:04:18.014Z,88.15
2018-11-05T12:05:18.143Z,87.48
2018-11-05T12:06:18.133Z,87.29
2018-11-05T12:07:18.178Z,87.39
2018-11-05T12:08:18.127Z,87.15
2018-11-05T12:09:18.158Z,87.20
2018-11-05T12:10:18.143Z,87.48
2018-11-05T12:11:18.138Z,87.01
2018-11-05T12:12:18.208Z,87.24
2018-11-05T12:13:18.231Z,86.57
2018-11-05T12:15:18.319Z,87.29
2018-11-05T12:16:18.252Z,87.48
2018-11-05T12:18:18.401Z,87.87
2018-11-05T12:19:18.322Z,87.39
2018-11-05T12:20:18.351Z,87.01
2018-11-05T12:21:18.434Z,86.10
2018-11-05T12:22:18.437Z,86.67
2018-11-05T12:23:18.489Z,86.38
2018-11-05T12:24:18.467Z,86.38
2018-11-05T12:25:18.442Z,86.96
2018-11-05T12:26:18.482Z,86.38
2018-11-05T12:27:18.478Z,86.10
2018-11-05T12:28:18.471Z,85.90
2018-11-05T12:29:18.493Z,86.00
2018-11-05T12:30:18.542Z,86.19
2018-11-05T12:31:18.548Z,86.38
2018-11-05T12:32:18.603Z,86.29
2018-11-05T12:33:18.582Z,85.81
2018-11-05T12:35:18.576Z,86.57
2018-11-05T12:36:18.631Z,86.47
2018-11-05T12:37:18.664Z,86.29
2018-11-05T12:38:18.644Z,87.15
2018-11-05T12:39:18.637Z,86.96
2018-11-05T12:40:18.662Z,86.57
2018-11-05T12:41:18.745Z,86.76
2018-11-05T12:42:18.709Z,87.68
2018-11-05T12:43:18.774Z,87.48
2018-11-05T12:44:18.820Z,87.58
2018-11-05T12:45:18.830Z,87.87
2018-11-05T12:46:18.872Z,87.58
2018-11-05T12:47:18.817Z,87.58
2018-11-05T12:48:18.844Z,87.05
2018-11-05T12:49:18.839Z,86.91
2018-11-05T12:50:18.870Z,87.15
2018-11-05T12:52:18.892Z,87.15
2018-11-05T12:53:18.895Z,87.15
2018-11-05T12:54:18.937Z,87.24
2018-11-05T12:55:18.978Z,86.96
2018-11-05T12:56:18.965Z,86.10
2018-11-05T12:57:18.988Z,86.67
2018-11-05T12:58:18.998Z,85.47
2018-11-05T12:59:19.010Z,85.66
2018-11-05T13:00:19.025Z,85.18
2018-11-05T13:01:19.047Z,84.89
2018-11-05T13:02:19.074Z,84.61
2018-11-05T13:03:19.082Z,84.61
2018-11-05T13:04:19.222Z,84.61
2018-11-05T13:05:19.109Z,84.32
2018-11-05T13:06:19.133Z,84.99
2018-11-05T13:07:19.153Z,84.80
2018-11-05T13:08:19.176Z,84.70
2018-11-05T13:09:19.187Z,84.61
2018-11-05T13:10:19.206Z,84.42
2018-11-05T13:11:19.222Z,84.42
2018-11-05T13:12:19.342Z,84.03
2018-11-05T13:13:19.344Z,83.56
2018-11-05T13:14:19.312Z,83.17
2018-11-05T13:15:19.484Z,82.79
2018-11-05T13:16:19.323Z,83.56
2018-11-05T13:17:19.344Z,84.23
2018-11-05T13:18:19.351Z,84.52
2018-11-05T13:19:19.382Z,84.42
2018-11-05T13:20:19.416Z,84.61
2018-11-05T13:21:19.413Z,84.61
2018-11-05T13:22:19.531Z,84.89
2018-11-05T13:23:19.445Z,85.05
2018-11-05T13:24:19.498Z,84.89
2018-11-05T13:25:19.486Z,84.52
2018-11-05T13:26:19.557Z,84.23
2018-11-05T13:27:19.530Z,84.80
2018-11-05T13:28:19.608Z,84.80
2018-11-05T13:29:19.561Z,84.99
2018-11-05T13:30:19.597Z,84.89
2018-11-05T13:31:19.597Z,84.52
2018-11-05T13:32:19.632Z,84.80
2018-11-05T13:33:19.645Z,84.80
2018-11-05T13:34:19.658Z,84.70
2018-11-05T13:35:19.675Z,83.65
2018-11-05T13:36:19.692Z,83.56
2018-11-05T13:37:20.069Z,83.94
2018-11-05T13:38:20.261Z,84.13
2018-11-05T13:39:19.782Z,84.61
2018-11-05T13:40:19.768Z,84.52
2018-11-05T13:41:19.796Z,84.61
2018-11-05T13:42:19.813Z,84.61